createdAt,value
2023-01-08T00:05:12.727Z,3.87
2023-01-08T00:15:19.069Z,3.83
2023-01-08T00:25:25.376Z,3.80
2023-01-08T00:35:31.710Z,3.62
2023-01-08T00:45:38.077Z,3.45
2023-01-08T00:55:44.420Z,3.38
2023-01-08T01:05:51.209Z,3.20
2023-01-08T01:16:01.715Z,3.07
2023-01-08T01:26:08.152Z,2.92
2023-01-08T01:36:16.081Z,2.89
2023-01-08T01:46:46.514Z,2.78
2023-01-08T01:56:52.831Z,2.65
2023-01-08T02:07:09.786Z,2.55
2023-01-08T02:17:26.083Z,2.44
2023-01-08T02:27:33.262Z,2.34
2023-01-08T02:37:40.084Z,2.18
2023-01-08T02:47:58.999Z,1.99
2023-01-08T02:58:05.961Z,1.98
2023-01-08T03:08:13.149Z,1.73
2023-01-08T03:18:27.331Z,1.90
2023-01-08T03:28:43.397Z,1.76
2023-01-08T03:39:10.919Z,1.76
2023-01-08T03:49:17.349Z,1.84
2023-01-08T03:59:25.840Z,1.62
2023-01-08T04:09:32.363Z,1.72
2023-01-08T04:19:38.659Z,1.45
2023-01-08T04:29:45.028Z,1.56
2023-01-08T04:39:51.340Z,1.60
2023-01-08T04:49:57.726Z,1.63
2023-01-08T05:00:04.547Z,1.28
2023-01-08T05:10:11.565Z,1.13
2023-01-08T05:20:19.055Z,1.09
2023-01-08T05:30:25.473Z,1.41
2023-01-08T05:40:31.733Z,0.95
2023-01-08T05:50:38.157Z,0.77
2023-01-08T06:00:44.468Z,1.11
2023-01-08T06:10:50.792Z,1.16
2023-01-08T06:20:57.334Z,0.69
2023-01-08T06:31:04.615Z,0.92
2023-01-08T06:41:11.977Z,0.91
2023-01-08T06:51:18.334Z,0.58
2023-01-08T07:01:24.832Z,0.92
2023-01-08T07:11:31.210Z,1.30
2023-01-08T07:21:37.524Z,1.34
2023-01-08T07:31:43.932Z,1.90
2023-01-08T07:41:50.319Z,2.69
2023-01-08T07:51:56.631Z,2.92
2023-01-08T08:02:03.200Z,3.42
2023-01-08T08:12:10.114Z,4.53
2023-01-08T08:22:17.004Z,4.29
2023-01-08T08:32:23.321Z,4.04
2023-01-08T08:42:29.576Z,3.54
2023-01-08T08:52:35.897Z,3.57
2023-01-08T09:02:42.392Z,3.52
2023-01-08T09:12:48.831Z,3.62
2023-01-08T09:22:55.536Z,4.36
2023-01-08T09:33:03.396Z,4.91
2023-01-08T09:43:17.478Z,4.93
2023-01-08T09:53:23.905Z,4.73
2023-01-08T10:03:42.923Z,5.93
2023-01-08T10:13:55.174Z,6.36
2023-01-08T10:24:01.480Z,6.50
2023-01-08T10:34:12.477Z,6.32
2023-01-08T10:44:19.940Z,5.99
2023-01-08T10:54:42.280Z,6.39
2023-01-08T11:04:52.493Z,6.71
2023-01-08T11:14:58.889Z,7.05
2023-01-08T11:25:09.936Z,7.15
2023-01-08T11:35:31.136Z,7.56
2023-01-08T11:45:40.344Z,7.90
2023-01-08T11:56:26.681Z,8.44
2023-01-08T12:06:42.961Z,8.16
2023-01-08T12:17:26.862Z,7.51
2023-01-08T12:27:57.625Z,7.89
2023-01-08T12:38:27.043Z,9.21
2023-01-08T12:48:36.036Z,10.17
2023-01-08T12:58:58.987Z,10.28
2023-01-08T13:09:05.293Z,10.47
2023-01-08T13:19:29.311Z,9.60
2023-01-08T13:29:41.562Z,8.87
2023-01-08T13:39:47.930Z,8.75
2023-01-08T13:49:55.136Z,8.78
2023-01-08T14:00:01.490Z,8.49
2023-01-08T14:10:14.491Z,8.06
2023-01-08T14:20:33.966Z,8.02
2023-01-08T14:30:51.270Z,7.49
2023-01-08T14:41:14.854Z,6.83
2023-01-08T14:51:27.408Z,6.52
2023-01-08T15:01:35.266Z,6.15
2023-01-08T15:12:00.498Z,6.04
2023-01-08T15:22:06.987Z,5.44
2023-01-08T15:32:13.669Z,5.15
2023-01-08T15:42:48.616Z,4.87
2023-01-08T15:52:57.652Z,4.81
2023-01-08T16:03:05.489Z,4.46
2023-01-08T16:13:12.379Z,4.40
2023-01-08T16:23:18.733Z,4.17
2023-01-08T16:33:25.195Z,4.23
2023-01-08T16:43:32.325Z,3.94
2023-01-08T16:53:38.960Z,3.88
2023-01-08T17:03:45.420Z,4.01
2023-01-08T17:13:52.012Z,4.43
2023-01-08T17:23:58.326Z,4.49
2023-01-08T17:34:04.793Z,4.55
2023-01-08T17:44:13.471Z,4.53
2023-01-08T17:54:21.043Z,4.89
2023-01-08T18:04:27.445Z,4.88
2023-01-08T18:14:36.315Z,5.05
2023-01-08T18:24:42.947Z,5.27
2023-01-08T18:34:49.845Z,5.28
2023-01-08T18:44:57.197Z,5.51
2023-01-08T18:55:03.855Z,5.40
2023-01-08T19:05:11.005Z,5.25
2023-01-08T19:15:18.034Z,5.27
2023-01-08T19:25:24.374Z,5.15
2023-01-08T19:35:31.153Z,5.02
2023-01-08T19:45:38.606Z,4.97
2023-01-08T19:55:46.503Z,5.08
2023-01-08T20:05:53.729Z,5.14
2023-01-08T20:16:00.103Z,5.05
2023-01-08T20:26:09.372Z,5.11
2023-01-08T20:36:22.047Z,5.25
2023-01-08T20:46:30.074Z,5.11
2023-01-08T20:56:36.396Z,5.00
2023-01-08T21:06:42.905Z,4.93
2023-01-08T21:16:49.299Z,4.96
2023-01-08T21:26:55.669Z,4.97
2023-01-08T21:37:03.704Z,5.16
2023-01-08T21:47:19.275Z,5.17
2023-01-08T21:57:28.797Z,5.20
2023-01-08T22:07:35.259Z,5.24
2023-01-08T22:17:41.550Z,5.12
2023-01-08T22:27:47.850Z,5.03
2023-01-08T22:37:54.171Z,5.16
2023-01-08T22:48:00.554Z,5.12
2023-01-08T22:58:06.857Z,5.25
2023-01-08T23:08:13.187Z,5.28
2023-01-08T23:18:19.730Z,5.06
2023-01-08T23:28:26.060Z,5.07
2023-01-08T23:38:33.098Z,5.00
2023-01-08T23:48:39.371Z,4.70
2023-01-08T23:58:46.479Z,4.59
